createdAt,value
2023-04-27T00:01:15.450Z,12.48
2023-04-27T00:03:42.005Z,12.47
2023-04-27T00:06:08.234Z,12.45
2023-04-27T00:08:34.608Z,12.44
2023-04-27T00:11:01.027Z,12.41
2023-04-27T00:13:27.473Z,12.39
2023-04-27T00:15:53.914Z,12.38
2023-04-27T00:18:20.190Z,12.38
2023-04-27T00:20:46.617Z,12.37
2023-04-27T00:23:13.139Z,12.35
2023-04-27T00:25:39.483Z,12.33
2023-04-27T00:28:05.865Z,12.28
2023-04-27T00:30:32.346Z,12.25
2023-04-27T00:32:58.820Z,12.23
2023-04-27T00:35:25.158Z,12.21
2023-04-27T00:37:51.575Z,12.20
2023-04-27T00:40:17.983Z,12.15
2023-04-27T00:42:44.397Z,12.14
2023-04-27T00:45:10.872Z,12.12
2023-04-27T00:47:37.337Z,12.09
2023-04-27T00:50:03.722Z,12.06
2023-04-27T00:52:30.151Z,12.06
2023-04-27T00:54:56.573Z,11.98
2023-04-27T00:57:22.951Z,11.96
2023-04-27T00:59:51.990Z,11.96
2023-04-27T01:02:15.988Z,11.93
2023-04-27T01:04:42.324Z,11.89
2023-04-27T01:07:08.699Z,11.85
2023-04-27T01:09:35.101Z,11.81
2023-04-27T01:12:01.585Z,11.78
2023-04-27T01:14:27.991Z,11.74
2023-04-27T01:16:54.437Z,11.71
2023-04-27T01:19:20.877Z,11.69
2023-04-27T01:21:47.248Z,11.66
2023-04-27T01:24:13.659Z,11.66
2023-04-27T01:26:40.109Z,11.63
2023-04-27T01:29:06.596Z,11.61
2023-04-27T01:31:33.041Z,11.59
2023-04-27T01:33:59.451Z,11.55
2023-04-27T01:36:25.863Z,11.52
2023-04-27T01:38:52.280Z,11.49
2023-04-27T01:41:18.718Z,11.42
2023-04-27T01:43:45.190Z,11.40
2023-04-27T01:46:11.654Z,11.37
2023-04-27T01:48:38.084Z,11.36
2023-04-27T01:51:04.535Z,11.31
2023-04-27T01:53:33.240Z,11.30
2023-04-27T01:55:59.711Z,11.27
2023-04-27T01:58:26.143Z,11.25
2023-04-27T02:00:52.543Z,11.25
2023-04-27T02:03:19.216Z,11.21
2023-04-27T02:05:45.371Z,11.21
2023-04-27T02:08:11.827Z,11.17
2023-04-27T02:10:38.273Z,11.15
2023-04-27T02:13:04.646Z,11.12
2023-04-27T02:15:31.060Z,11.10
2023-04-27T02:17:57.650Z,11.09
2023-04-27T02:20:23.979Z,11.00
2023-04-27T02:22:50.407Z,10.98
2023-04-27T02:25:16.833Z,10.96
2023-04-27T02:27:43.233Z,10.95
2023-04-27T02:30:09.623Z,10.94
2023-04-27T02:32:36.152Z,10.90
2023-04-27T02:35:02.458Z,10.85
2023-04-27T02:37:28.841Z,10.83
2023-04-27T02:39:55.263Z,10.81
2023-04-27T02:42:21.693Z,10.80
2023-04-27T02:44:48.098Z,10.78
2023-04-27T02:47:14.561Z,10.78
2023-04-27T02:49:40.939Z,10.78
2023-04-27T02:52:07.431Z,10.78
2023-04-27T02:54:33.850Z,10.75
2023-04-27T02:57:00.257Z,10.72
2023-04-27T02:59:28.516Z,10.70
2023-04-27T03:01:53.074Z,10.65
2023-04-27T03:04:19.638Z,10.64
2023-04-27T03:06:45.893Z,10.62
2023-04-27T03:09:12.575Z,10.62
2023-04-27T03:11:38.708Z,10.61
2023-04-27T03:14:05.112Z,10.58
2023-04-27T03:16:31.629Z,10.58
2023-04-27T03:18:57.948Z,10.56
2023-04-27T03:21:24.448Z,10.51
2023-04-27T03:23:50.798Z,10.49
2023-04-27T03:26:17.194Z,10.47
2023-04-27T03:28:43.598Z,10.45
2023-04-27T03:31:09.998Z,10.48
2023-04-27T03:33:36.452Z,10.47
2023-04-27T03:36:02.877Z,10.40
2023-04-27T03:38:30.393Z,10.39
2023-04-27T03:40:56.820Z,10.43
2023-04-27T03:43:23.227Z,10.49
2023-04-27T03:45:49.829Z,10.47
2023-04-27T03:48:16.176Z,10.47
2023-04-27T03:50:42.529Z,10.47
2023-04-27T03:53:08.935Z,10.40
2023-04-27T03:55:36.469Z,10.36
2023-04-27T03:58:02.812Z,10.33
2023-04-27T04:00:29.311Z,10.32
2023-04-27T04:02:55.882Z,10.33
2023-04-27T04:05:22.396Z,10.37
2023-04-27T04:07:48.732Z,10.32
2023-04-27T04:10:15.199Z,10.34
2023-04-27T04:12:41.600Z,10.32
2023-04-27T04:15:08.246Z,10.34
2023-04-27T04:17:34.712Z,10.35
2023-04-27T04:20:01.042Z,10.39
2023-04-27T04:22:27.538Z,10.40
2023-04-27T04:24:54.170Z,10.40
2023-04-27T04:27:20.534Z,10.41
2023-04-27T04:29:46.917Z,10.46
2023-04-27T04:32:13.437Z,10.45
2023-04-27T04:34:39.828Z,10.46
2023-04-27T04:37:06.298Z,10.48
2023-04-27T04:39:32.790Z,10.48
2023-04-27T04:41:59.216Z,10.49
2023-04-27T04:44:28.536Z,10.52
2023-04-27T04:46:54.966Z,10.64
2023-04-27T04:49:21.382Z,11.06
2023-04-27T04:51:47.825Z,11.45
2023-04-27T04:54:14.243Z,11.82
2023-04-27T04:56:40.673Z,12.14
2023-04-27T04:59:07.030Z,12.18
2023-04-27T05:01:33.457Z,11.93
2023-04-27T05:04:00.056Z,11.74
2023-04-27T05:06:26.437Z,11.70
2023-04-27T05:08:52.978Z,11.74
2023-04-27T05:11:19.627Z,11.75
2023-04-27T05:13:46.049Z,11.75
2023-04-27T05:16:12.529Z,11.80
2023-04-27T05:18:38.931Z,11.94
2023-04-27T05:21:05.317Z,12.08
2023-04-27T05:23:31.724Z,12.10
2023-04-27T05:25:58.166Z,11.99
2023-04-27T05:28:24.567Z,11.94
2023-04-27T05:30:51.100Z,11.93
2023-04-27T05:33:17.510Z,11.92
2023-04-27T05:35:43.969Z,11.87
2023-04-27T05:38:10.409Z,11.81
2023-04-27T05:40:36.921Z,11.79
2023-04-27T05:43:03.489Z,11.83
2023-04-27T05:45:29.875Z,11.86
2023-04-27T05:47:56.563Z,11.84
2023-04-27T05:50:23.021Z,11.84
2023-04-27T05:52:49.386Z,11.85
2023-04-27T05:55:15.769Z,11.87
2023-04-27T05:57:42.428Z,11.92
2023-04-27T06:00:08.783Z,11.95
2023-04-27T06:02:35.387Z,11.96
2023-04-27T06:05:01.732Z,11.97
2023-04-27T06:07:28.113Z,12.05
2023-04-27T06:09:54.607Z,12.22
2023-04-27T06:12:21.041Z,12.36
2023-04-27T06:14:47.515Z,12.44
2023-04-27T06:17:14.127Z,12.45
2023-04-27T06:19:40.607Z,12.49
2023-04-27T06:22:08.001Z,12.52
2023-04-27T06:24:34.377Z,12.67
2023-04-27T06:27:00.849Z,12.79
2023-04-27T06:29:27.507Z,12.86
2023-04-27T06:31:53.952Z,12.92
2023-04-27T06:34:20.342Z,13.03
2023-04-27T06:36:46.874Z,13.25
2023-04-27T06:39:13.381Z,13.45
2023-04-27T06:41:39.660Z,13.77
2023-04-27T06:44:06.109Z,14.10
2023-04-27T06:46:32.587Z,14.42
2023-04-27T06:48:58.922Z,14.73
2023-04-27T06:51:25.245Z,15.05
2023-04-27T06:53:51.773Z,15.34
2023-04-27T06:56:18.191Z,15.60
2023-04-27T06:58:44.587Z,15.83
2023-04-27T07:01:11.096Z,15.97
2023-04-27T07:03:37.782Z,16.04
2023-04-27T07:06:03.857Z,16.09
2023-04-27T07:08:30.308Z,16.13
2023-04-27T07:10:56.976Z,16.12
2023-04-27T07:13:23.350Z,16.30
2023-04-27T07:15:49.760Z,16.68
2023-04-27T07:18:16.276Z,17.04
2023-04-27T07:20:43.904Z,17.30
2023-04-27T07:23:10.274Z,17.25
2023-04-27T07:25:36.756Z,17.09
2023-04-27T07:28:03.284Z,16.88
2023-04-27T07:30:29.713Z,16.77
2023-04-27T07:32:56.519Z,16.70
2023-04-27T07:35:22.875Z,16.62
2023-04-27T07:37:49.355Z,16.47
2023-04-27T07:40:15.706Z,16.35
2023-04-27T07:42:42.210Z,16.31
2023-04-27T07:45:08.785Z,16.27
2023-04-27T07:47:35.172Z,16.29
2023-04-27T07:50:01.508Z,16.62
2023-04-27T07:52:28.028Z,17.02
2023-04-27T07:54:54.406Z,17.39
2023-04-27T07:57:20.832Z,17.73
2023-04-27T07:59:47.308Z,17.83
2023-04-27T08:02:20.117Z,17.74
2023-04-27T08:04:42.824Z,17.82
2023-04-27T08:07:09.696Z,17.79
2023-04-27T08:09:37.545Z,17.70
2023-04-27T08:12:01.914Z,17.77
2023-04-27T08:14:28.735Z,18.03
2023-04-27T08:16:55.168Z,18.28
2023-04-27T08:19:21.585Z,18.32
2023-04-27T08:21:48.065Z,18.37
2023-04-27T08:24:14.504Z,18.58
2023-04-27T08:26:41.008Z,18.82
2023-04-27T08:29:19.402Z,19.02
2023-04-27T08:31:33.839Z,19.19
2023-04-27T08:34:00.299Z,19.39
2023-04-27T08:36:26.681Z,19.53
2023-04-27T08:38:53.084Z,19.70
2023-04-27T08:41:21.842Z,19.82
2023-04-27T08:43:45.952Z,19.96
2023-04-27T08:46:12.471Z,20.18
2023-04-27T08:48:39.009Z,20.40
2023-04-27T08:51:05.432Z,20.57
2023-04-27T08:53:31.824Z,20.69
2023-04-27T08:55:58.274Z,20.80
2023-04-27T08:58:24.708Z,20.87
2023-04-27T09:00:52.493Z,20.75
2023-04-27T09:03:17.616Z,20.52
2023-04-27T09:05:56.147Z,20.23
2023-04-27T09:08:10.307Z,20.02
2023-04-27T09:10:36.802Z,20.02
2023-04-27T09:13:03.224Z,20.02
2023-04-27T09:15:29.619Z,19.95
2023-04-27T09:17:56.234Z,19.82
2023-04-27T09:20:22.672Z,19.94
2023-04-27T09:22:49.043Z,20.17
2023-04-27T09:25:15.435Z,20.23
2023-04-27T09:27:42.007Z,20.05
2023-04-27T09:30:08.548Z,19.94
2023-04-27T09:32:35.044Z,20.05
2023-04-27T09:35:01.385Z,20.37
2023-04-27T09:37:27.803Z,20.52
2023-04-27T09:39:54.240Z,20.45
2023-04-27T09:42:20.655Z,20.28
2023-04-27T09:44:47.081Z,20.15
2023-04-27T09:47:13.491Z,19.88
2023-04-27T09:49:39.882Z,19.80
2023-04-27T09:52:06.320Z,19.83
2023-04-27T09:54:32.789Z,19.86
2023-04-27T09:56:59.223Z,19.81
2023-04-27T09:59:25.609Z,19.60
2023-04-27T10:01:52.116Z,19.30
2023-04-27T10:04:18.620Z,19.19
2023-04-27T10:06:44.907Z,19.12
2023-04-27T10:09:11.732Z,19.06
2023-04-27T10:11:37.818Z,18.99
2023-04-27T10:14:04.244Z,18.95
2023-04-27T10:16:30.753Z,18.95
2023-04-27T10:18:57.153Z,18.94
2023-04-27T10:21:24.658Z,19.07
2023-04-27T10:23:51.091Z,19.25
2023-04-27T10:26:17.423Z,19.41
2023-04-27T10:28:43.867Z,19.50
2023-04-27T10:31:10.548Z,19.47
2023-04-27T10:33:36.908Z,19.44
2023-04-27T10:36:03.275Z,19.46
2023-04-27T10:38:29.683Z,19.52
2023-04-27T10:40:56.069Z,19.53
2023-04-27T10:43:23.538Z,19.44
2023-04-27T10:45:50.122Z,19.32
2023-04-27T10:48:16.493Z,19.17
2023-04-27T10:50:42.860Z,19.07
2023-04-27T10:53:09.295Z,19.00
2023-04-27T10:55:35.721Z,19.01
2023-04-27T10:58:02.157Z,18.99
2023-04-27T11:00:28.567Z,18.95
2023-04-27T11:02:55.064Z,18.93
2023-04-27T11:05:21.532Z,18.85
2023-04-27T11:07:47.942Z,18.79
2023-04-27T11:10:14.317Z,18.77
2023-04-27T11:12:40.792Z,18.74
2023-04-27T11:15:07.167Z,18.72
2023-04-27T11:17:33.624Z,18.65
2023-04-27T11:20:00.007Z,18.57
2023-04-27T11:22:27.528Z,18.50
2023-04-27T11:24:53.938Z,18.50
2023-04-27T11:27:20.381Z,18.47
2023-04-27T11:29:46.946Z,18.48
2023-04-27T11:32:13.414Z,18.53
2023-04-27T11:34:39.791Z,18.53
2023-04-27T11:39:32.606Z,18.49
2023-04-27T11:41:59.023Z,18.47
2023-04-27T11:44:25.439Z,18.48
2023-04-27T11:46:51.910Z,18.50
2023-04-27T11:49:18.249Z,18.48
2023-04-27T11:51:44.654Z,18.44
2023-04-27T11:54:11.078Z,18.46
2023-04-27T11:56:37.494Z,18.42
2023-04-27T11:59:03.877Z,18.42
2023-04-27T12:01:37.630Z,18.38
2023-04-27T12:03:57.630Z,18.34
2023-04-27T12:08:49.502Z,18.27
2023-04-27T12:11:15.971Z,18.27
2023-04-27T12:13:42.391Z,18.26
2023-04-27T12:16:08.812Z,18.26
2023-04-27T12:18:35.226Z,18.32
2023-04-27T12:21:03.341Z,18.30
2023-04-27T12:23:28.032Z,18.32
2023-04-27T12:25:54.444Z,18.32
2023-04-27T12:28:20.834Z,18.34
2023-04-27T12:30:47.245Z,18.38
2023-04-27T12:33:13.671Z,18.38
2023-04-27T12:35:40.127Z,18.38
2023-04-27T12:38:06.535Z,18.35
2023-04-27T12:40:32.961Z,18.34
2023-04-27T12:43:01.047Z,18.31
2023-04-27T12:45:25.999Z,18.28
2023-04-27T12:48:02.870Z,18.24
2023-04-27T12:50:18.870Z,18.21
2023-04-27T12:52:45.315Z,18.19
2023-04-27T12:55:24.720Z,18.15
2023-04-27T12:57:38.208Z,18.14
2023-04-27T13:00:04.607Z,18.17
2023-04-27T13:02:31.169Z,18.22
2023-04-27T13:04:57.540Z,18.24
2023-04-27T13:07:23.876Z,18.21
2023-04-27T13:09:50.258Z,18.21
2023-04-27T13:12:16.689Z,18.19
2023-04-27T13:14:43.107Z,18.20
2023-04-27T13:17:09.587Z,18.19
2023-04-27T13:19:35.969Z,18.16
2023-04-27T13:22:02.383Z,18.12
2023-04-27T13:24:28.898Z,18.09
2023-04-27T13:26:55.265Z,18.09
2023-04-27T13:29:21.663Z,18.07
2023-04-27T13:31:48.116Z,18.04
2023-04-27T13:34:14.657Z,17.99
2023-04-27T13:36:40.898Z,17.99
2023-04-27T13:39:08.551Z,17.97
2023-04-27T13:41:34.944Z,17.95
2023-04-27T13:44:01.333Z,17.91
2023-04-27T13:46:27.743Z,17.87
2023-04-27T13:48:54.122Z,17.82
2023-04-27T13:51:20.661Z,17.77
2023-04-27T13:53:47.033Z,17.69
2023-04-27T13:56:13.450Z,17.63
2023-04-27T13:58:39.841Z,17.61
2023-04-27T14:01:06.318Z,17.60
2023-04-27T14:03:32.811Z,17.58
2023-04-27T14:05:59.054Z,17.57
2023-04-27T14:08:25.485Z,17.55
2023-04-27T14:10:51.973Z,17.58
2023-04-27T14:13:18.394Z,17.57
2023-04-27T14:15:44.816Z,17.57
2023-04-27T14:18:11.251Z,17.59
2023-04-27T14:20:37.638Z,17.60
2023-04-27T14:23:04.087Z,17.56
2023-04-27T14:25:30.470Z,17.57
2023-04-27T14:27:56.919Z,17.55
2023-04-27T14:30:23.311Z,17.54
2023-04-27T14:32:49.748Z,17.53
2023-04-27T14:35:16.122Z,17.53
2023-04-27T14:37:42.500Z,17.54
2023-04-27T14:40:08.940Z,17.53
2023-04-27T14:42:35.354Z,17.53
2023-04-27T14:45:01.720Z,17.54
2023-04-27T14:47:28.293Z,17.52
2023-04-27T14:49:54.678Z,17.51
2023-04-27T14:52:21.049Z,17.46
2023-04-27T14:54:47.467Z,17.39
2023-04-27T14:57:13.924Z,17.33
2023-04-27T14:59:40.342Z,17.29
2023-04-27T15:02:06.838Z,17.25
2023-04-27T15:04:33.218Z,17.17
2023-04-27T15:06:59.587Z,17.15
2023-04-27T15:09:26.012Z,17.12
2023-04-27T15:11:52.418Z,17.09
2023-04-27T15:14:18.923Z,17.05
2023-04-27T15:16:45.354Z,16.98
2023-04-27T15:19:11.771Z,16.91
2023-04-27T15:21:38.174Z,16.85
2023-04-27T15:24:04.595Z,16.78
2023-04-27T15:26:30.978Z,16.75
2023-04-27T15:28:57.448Z,16.70
2023-04-27T15:31:23.851Z,16.65
2023-04-27T15:33:50.187Z,16.60
2023-04-27T15:36:17.685Z,16.54
2023-04-27T15:38:44.099Z,16.51
2023-04-27T15:41:10.509Z,16.47
2023-04-27T15:43:36.998Z,16.46
2023-04-27T15:46:03.403Z,16.40
2023-04-27T15:48:29.758Z,16.38
2023-04-27T15:50:56.158Z,16.35
2023-04-27T15:53:22.547Z,16.31
2023-04-27T15:55:48.929Z,16.26
2023-04-27T15:58:15.356Z,16.22
2023-04-27T16:00:43.022Z,16.20
2023-04-27T16:03:10.913Z,16.18
2023-04-27T16:05:35.891Z,16.14
2023-04-27T16:08:02.330Z,16.10
2023-04-27T16:10:28.744Z,16.05
2023-04-27T16:12:55.352Z,16.02
2023-04-27T16:15:21.919Z,15.98
2023-04-27T16:17:48.441Z,15.96
2023-04-27T16:20:14.834Z,15.93
2023-04-27T16:22:41.220Z,15.87
2023-04-27T16:25:07.631Z,15.82
2023-04-27T16:27:34.016Z,15.79
2023-04-27T16:30:00.436Z,15.74
2023-04-27T16:32:26.889Z,15.70
2023-04-27T16:34:54.244Z,15.70
2023-04-27T16:37:20.665Z,15.67
2023-04-27T16:39:47.212Z,15.62
2023-04-27T16:42:13.751Z,15.59
2023-04-27T16:44:40.213Z,15.53
2023-04-27T16:47:06.636Z,15.48
2023-04-27T16:49:32.996Z,15.44
2023-04-27T16:51:59.414Z,15.50
2023-04-27T16:54:25.773Z,15.50
2023-04-27T16:56:54.518Z,15.47
2023-04-27T16:59:18.942Z,15.43
2023-04-27T17:01:45.479Z,15.36
2023-04-27T17:04:12.114Z,15.30
2023-04-27T17:06:38.412Z,15.24
2023-04-27T17:09:04.824Z,15.21
2023-04-27T17:11:31.270Z,15.15
2023-04-27T17:13:57.722Z,15.14
2023-04-27T17:16:24.187Z,15.09
2023-04-27T17:18:50.551Z,15.02
2023-04-27T17:21:17.302Z,15.07
2023-04-27T17:23:43.598Z,15.09
2023-04-27T17:26:10.058Z,15.05
2023-04-27T17:28:36.437Z,14.99
2023-04-27T17:31:03.084Z,14.92
2023-04-27T17:33:29.444Z,14.85
2023-04-27T17:35:56.008Z,14.81
2023-04-27T17:38:22.512Z,14.78
2023-04-27T17:40:49.009Z,14.76
2023-04-27T17:43:15.637Z,14.74
2023-04-27T17:45:42.019Z,14.71
2023-04-27T17:48:08.645Z,14.68
2023-04-27T17:50:34.966Z,14.61
2023-04-27T17:53:01.405Z,14.60
2023-04-27T17:55:27.786Z,14.56
2023-04-27T17:57:54.274Z,14.50
2023-04-27T18:00:20.667Z,14.48
2023-04-27T18:02:47.112Z,14.56
2023-04-27T18:05:13.541Z,14.64
2023-04-27T18:07:40.130Z,14.62
2023-04-27T18:10:06.542Z,14.56
2023-04-27T18:12:32.963Z,14.50
2023-04-27T18:15:04.361Z,14.45
2023-04-27T18:17:28.617Z,14.40
2023-04-27T18:20:06.976Z,14.37
2023-04-27T18:22:21.614Z,14.31
2023-04-27T18:24:48.649Z,14.29
2023-04-27T18:27:15.023Z,14.26
2023-04-27T18:29:41.425Z,14.22
2023-04-27T18:32:07.942Z,14.18
2023-04-27T18:34:34.309Z,14.17
2023-04-27T18:37:00.713Z,14.16
2023-04-27T18:39:27.141Z,14.17
2023-04-27T18:41:53.618Z,14.17
2023-04-27T18:44:20.063Z,14.14
2023-04-27T18:46:46.463Z,14.11
2023-04-27T18:49:13.076Z,14.08
2023-04-27T18:51:39.446Z,14.06
2023-04-27T18:56:32.323Z,14.02
2023-04-27T18:58:58.706Z,13.99
2023-04-27T19:01:25.498Z,13.96
2023-04-27T19:03:54.057Z,13.97
2023-04-27T19:06:21.396Z,13.97
2023-04-27T19:08:46.965Z,13.94
2023-04-27T19:11:13.444Z,13.93
2023-04-27T19:13:39.837Z,13.92
2023-04-27T19:16:06.325Z,13.89
2023-04-27T19:18:33.049Z,13.86
2023-04-27T19:21:00.366Z,13.84
2023-04-27T19:23:26.845Z,13.83
2023-04-27T19:25:55.136Z,13.78
2023-04-27T19:28:20.321Z,13.75
2023-04-27T19:30:46.786Z,13.72
2023-04-27T19:33:13.213Z,13.71
2023-04-27T19:35:40.687Z,13.69
2023-04-27T19:38:07.130Z,13.69
2023-04-27T19:40:34.187Z,13.66
2023-04-27T19:43:00.683Z,13.65
2023-04-27T19:45:29.200Z,13.63
2023-04-27T19:47:57.942Z,13.60
2023-04-27T19:50:24.315Z,13.57
2023-04-27T19:52:50.692Z,13.52
2023-04-27T19:55:19.584Z,13.52
2023-04-27T19:57:46.011Z,13.50
2023-04-27T20:00:12.746Z,13.48
2023-04-27T20:02:39.407Z,13.46
2023-04-27T20:05:06.095Z,13.44
2023-04-27T20:07:32.190Z,13.41
2023-04-27T20:09:58.930Z,13.42
2023-04-27T20:12:47.355Z,13.38
2023-04-27T20:14:51.730Z,13.37
2023-04-27T20:17:18.123Z,13.36
2023-04-27T20:19:44.565Z,13.36
2023-04-27T20:22:11.000Z,13.36
2023-04-27T20:24:37.351Z,13.34
2023-04-27T20:27:03.813Z,13.31
2023-04-27T20:29:30.158Z,13.27
2023-04-27T20:31:56.616Z,13.26
2023-04-27T20:34:23.159Z,13.25
2023-04-27T20:36:49.616Z,13.22
2023-04-27T20:39:15.945Z,13.21
2023-04-27T20:41:42.450Z,13.20
2023-04-27T20:44:08.915Z,13.18
2023-04-27T20:46:35.285Z,13.16
2023-04-27T20:49:01.683Z,13.13
2023-04-27T20:51:28.366Z,13.12
2023-04-27T20:53:54.993Z,13.09
2023-04-27T20:56:21.396Z,13.05
2023-04-27T20:58:47.750Z,13.03
2023-04-27T21:01:14.179Z,12.99
2023-04-27T21:03:40.680Z,12.97
2023-04-27T21:06:08.153Z,12.93
2023-04-27T21:08:34.535Z,12.89
2023-04-27T21:11:00.939Z,12.86
2023-04-27T21:13:27.355Z,12.83
2023-04-27T21:15:53.771Z,12.83
2023-04-27T21:18:29.570Z,12.80
2023-04-27T21:20:46.557Z,12.75
2023-04-27T21:23:13.212Z,12.75
2023-04-27T21:25:39.500Z,12.72
2023-04-27T21:28:05.880Z,12.70
2023-04-27T21:30:32.385Z,12.69
2023-04-27T21:32:58.825Z,12.66
2023-04-27T21:35:25.151Z,12.64
2023-04-27T21:37:51.527Z,12.61
2023-04-27T21:40:17.948Z,12.56
2023-04-27T21:42:44.411Z,12.53
2023-04-27T21:45:10.811Z,12.50
2023-04-27T21:47:37.391Z,12.51
2023-04-27T21:50:03.692Z,12.46
2023-04-27T21:52:30.129Z,12.41
2023-04-27T21:54:56.503Z,12.33
2023-04-27T21:57:22.998Z,12.26
2023-04-27T21:59:49.345Z,12.19
2023-04-27T22:02:15.769Z,12.15
2023-04-27T22:04:42.321Z,12.13
2023-04-27T22:07:08.565Z,12.11
2023-04-27T22:09:34.965Z,12.08
2023-04-27T22:12:03.588Z,12.05
2023-04-27T22:14:27.857Z,12.01
2023-04-27T22:16:54.340Z,11.99
2023-04-27T22:19:20.734Z,11.94
2023-04-27T22:21:47.110Z,11.92
2023-04-27T22:24:13.658Z,11.89
2023-04-27T22:26:39.980Z,11.85
2023-04-27T22:29:06.434Z,11.86
2023-04-27T22:31:32.876Z,11.81
2023-04-27T22:33:59.182Z,11.81
2023-04-27T22:36:25.564Z,11.79
2023-04-27T22:38:52.062Z,11.79
2023-04-27T22:41:18.465Z,11.74
2023-04-27T22:43:44.956Z,11.73
2023-04-27T22:46:11.458Z,11.70
2023-04-27T22:48:37.773Z,11.66
2023-04-27T22:51:06.731Z,11.62
2023-04-27T22:53:30.604Z,11.60
2023-04-27T22:55:56.966Z,11.59
2023-04-27T22:58:23.425Z,11.60
2023-04-27T23:00:49.912Z,11.55
2023-04-27T23:03:16.410Z,11.54
2023-04-27T23:05:42.711Z,11.53
2023-04-27T23:08:09.159Z,11.53
2023-04-27T23:10:35.576Z,11.51
2023-04-27T23:13:02.126Z,11.49
2023-04-27T23:15:28.499Z,11.48
2023-04-27T23:17:55.006Z,11.46
2023-04-27T23:20:28.170Z,11.44
2023-04-27T23:22:47.848Z,11.43
2023-04-27T23:25:14.406Z,11.42
2023-04-27T23:27:40.784Z,11.43
2023-04-27T23:30:07.235Z,11.43
2023-04-27T23:32:33.675Z,11.42
2023-04-27T23:35:00.099Z,11.39
2023-04-27T23:37:26.556Z,11.36
2023-04-27T23:39:52.974Z,11.31
2023-04-27T23:42:19.429Z,11.29
2023-04-27T23:44:45.809Z,11.29
2023-04-27T23:47:12.182Z,11.26
2023-04-27T23:49:38.580Z,11.24
2023-04-27T23:52:05.023Z,11.21
2023-04-27T23:54:31.458Z,11.16
2023-04-27T23:56:57.891Z,11.16
2023-04-27T23:59:24.297Z,11.15
